Aviation Digital Data Service (ADDS)

Output produced by METARs form (1850 UTC 19 April 2019)
found at http://www.aviationweather.gov/metar/data/
 
METAR text: LJLJ 191830Z 28001KT CAVOK 12/06 Q1027 NOSIG
Conditions at: LJLJ (LJUBLJANA/BRNIK , SI) observed 1830 UTC 19 April 2019
Temperature: 12.0°C (54°F)
Dewpoint: 6.0°C (43°F) [RH = 67%]
Pressure (altimeter): 30.32 inches Hg (1027.0 mb)
Winds: from the W (280 degrees) at 1 MPH (1 knots; 0.5 m/s)
Visibility: 6 or more miles (10+ km)
Ceiling: ceiling and visibility are OK
Clouds: unknown
Weather: no significant weather observed at this time

METAR text: LJLJ 191800Z 00000KT CAVOK 13/06 Q1027 NOSIG
Conditions at: LJLJ (LJUBLJANA/BRNIK , SI) observed 1800 UTC 19 April 2019
Temperature: 13.0°C (55°F)
Dewpoint: 6.0°C (43°F) [RH = 62%]
Pressure (altimeter): 30.32 inches Hg (1027.0 mb)
Winds: calm
Visibility: 6 or more miles (10+ km)
Ceiling: ceiling and visibility are OK
Clouds: unknown
Weather: no significant weather observed at this time

METAR text: LJLJ 191730Z 00000KT 9999 FEW065 16/06 Q1027 NOSIG
Conditions at: LJLJ (LJUBLJANA/BRNIK , SI) observed 1730 UTC 19 April 2019
Temperature: 16.0°C (61°F)
Dewpoint: 6.0°C (43°F) [RH = 51%]
Pressure (altimeter): 30.32 inches Hg (1027.0 mb)
Winds: calm
Visibility: 6 or more miles (10+ km)
Ceiling: at least 12,000 feet AGL
Clouds: few clouds at 6500 feet AGL
Weather: no significant weather observed at this time

METAR text: LJLJ 191700Z VRB02KT 9999 FEW065 18/08 Q1027 NOSIG
Conditions at: LJLJ (LJUBLJANA/BRNIK , SI) observed 1700 UTC 19 April 2019
Temperature: 18.0°C (64°F)
Dewpoint: 8.0°C (46°F) [RH = 52%]
Pressure (altimeter): 30.32 inches Hg (1027.0 mb)
Winds: variable direction winds at 2 MPH (2 knots; 1.0 m/s)
Visibility: 6 or more miles (10+ km)
Ceiling: at least 12,000 feet AGL
Clouds: few clouds at 6500 feet AGL
Weather: no significant weather observed at this time

METAR text: LJLJ 191630Z VRB02KT 9999 FEW065 20/02 Q1027 NOSIG
Conditions at: LJLJ (LJUBLJANA/BRNIK , SI) observed 1630 UTC 19 April 2019
Temperature: 20.0°C (68°F)
Dewpoint: 2.0°C (36°F) [RH = 30%]
Pressure (altimeter): 30.32 inches Hg (1027.0 mb)
Winds: variable direction winds at 2 MPH (2 knots; 1.0 m/s)
Visibility: 6 or more miles (10+ km)
Ceiling: at least 12,000 feet AGL
Clouds: few clouds at 6500 feet AGL
Weather: no significant weather observed at this time

METAR text: LJLJ 191600Z 23004KT 170V270 9999 FEW065 20/03 Q1027 NOSIG
Conditions at: LJLJ (LJUBLJANA/BRNIK , SI) observed 1600 UTC 19 April 2019
Temperature: 20.0°C (68°F)
Dewpoint: 3.0°C (37°F) [RH = 32%]
Pressure (altimeter): 30.32 inches Hg (1027.0 mb)
Winds: from the SW (230 degrees) at 5 MPH (4 knots; 2.1 m/s)
Visibility: 6 or more miles (10+ km)
Ceiling: at least 12,000 feet AGL
Clouds: few clouds at 6500 feet AGL
Weather: no significant weather observed at this time

METAR text: LJLJ 191530Z 16003KT 070V210 9999 FEW065 20/03 Q1027 NOSIG
Conditions at: LJLJ (LJUBLJANA/BRNIK , SI) observed 1530 UTC 19 April 2019
Temperature: 20.0°C (68°F)
Dewpoint: 3.0°C (37°F) [RH = 32%]
Pressure (altimeter): 30.32 inches Hg (1027.0 mb)
Winds: from the SSE (160 degrees) at 3 MPH (3 knots; 1.5 m/s)
Visibility: 6 or more miles (10+ km)
Ceiling: at least 12,000 feet AGL
Clouds: few clouds at 6500 feet AGL
Weather: no significant weather observed at this time

METAR text: LJLJ 191500Z VRB02KT 9999 FEW065 20/03 Q1027 NOSIG
Conditions at: LJLJ (LJUBLJANA/BRNIK , SI) observed 1500 UTC 19 April 2019
Temperature: 20.0°C (68°F)
Dewpoint: 3.0°C (37°F) [RH = 32%]
Pressure (altimeter): 30.32 inches Hg (1027.0 mb)
Winds: variable direction winds at 2 MPH (2 knots; 1.0 m/s)
Visibility: 6 or more miles (10+ km)
Ceiling: at least 12,000 feet AGL
Clouds: few clouds at 6500 feet AGL
Weather: no significant weather observed at this time

METAR text: LJLJ 191430Z 12006KT 090V150 9999 FEW065 20/04 Q1027 NOSIG
Conditions at: LJLJ (LJUBLJANA/BRNIK , SI) observed 1430 UTC 19 April 2019
Temperature: 20.0°C (68°F)
Dewpoint: 4.0°C (39°F) [RH = 35%]
Pressure (altimeter): 30.32 inches Hg (1027.0 mb)
Winds: from the ESE (120 degrees) at 7 MPH (6 knots; 3.1 m/s)
Visibility: 6 or more miles (10+ km)
Ceiling: at least 12,000 feet AGL
Clouds: few clouds at 6500 feet AGL
Weather: no significant weather observed at this time

METAR text: LJLJ 191400Z 26001KT 9999 FEW065 20/03 Q1028 NOSIG
Conditions at: LJLJ (LJUBLJANA/BRNIK , SI) observed 1400 UTC 19 April 2019
Temperature: 20.0°C (68°F)
Dewpoint: 3.0°C (37°F) [RH = 32%]
Pressure (altimeter): 30.35 inches Hg (1028.0 mb)
Winds: from the W (260 degrees) at 1 MPH (1 knots; 0.5 m/s)
Visibility: 6 or more miles (10+ km)
Ceiling: at least 12,000 feet AGL
Clouds: few clouds at 6500 feet AGL
Weather: no significant weather observed at this time

METAR text: LJLJ 191330Z 10003KT 360V160 9999 FEW065 20/04 Q1028 NOSIG
Conditions at: LJLJ (LJUBLJANA/BRNIK , SI) observed 1330 UTC 19 April 2019
Temperature: 20.0°C (68°F)
Dewpoint: 4.0°C (39°F) [RH = 35%]
Pressure (altimeter): 30.35 inches Hg (1028.0 mb)
Winds: from the E (100 degrees) at 3 MPH (3 knots; 1.5 m/s)
Visibility: 6 or more miles (10+ km)
Ceiling: at least 12,000 feet AGL
Clouds: few clouds at 6500 feet AGL
Weather: no significant weather observed at this time

METAR text: LJLJ 191300Z 27003KT 210V350 9999 FEW065 19/02 Q1028 NOSIG
Conditions at: LJLJ (LJUBLJANA/BRNIK , SI) observed 1300 UTC 19 April 2019
Temperature: 19.0°C (66°F)
Dewpoint: 2.0°C (36°F) [RH = 32%]
Pressure (altimeter): 30.35 inches Hg (1028.0 mb)
Winds: from the W (270 degrees) at 3 MPH (3 knots; 1.5 m/s)
Visibility: 6 or more miles (10+ km)
Ceiling: at least 12,000 feet AGL
Clouds: few clouds at 6500 feet AGL
Weather: no significant weather observed at this time

METAR text: LJLJ 191230Z VRB04KT 9999 FEW060 19/02 Q1029 NOSIG
Conditions at: LJLJ (LJUBLJANA/BRNIK , SI) observed 1230 UTC 19 April 2019
Temperature: 19.0°C (66°F)
Dewpoint: 2.0°C (36°F) [RH = 32%]
Pressure (altimeter): 30.38 inches Hg (1029.0 mb)
Winds: variable direction winds at 5 MPH (4 knots; 2.1 m/s)
Visibility: 6 or more miles (10+ km)
Ceiling: at least 12,000 feet AGL
Clouds: few clouds at 6000 feet AGL
Weather: no significant weather observed at this time

METAR text: LJLJ 191200Z 19004KT 9999 FEW060 19/03 Q1029 NOSIG
Conditions at: LJLJ (LJUBLJANA/BRNIK , SI) observed 1200 UTC 19 April 2019
Temperature: 19.0°C (66°F)
Dewpoint: 3.0°C (37°F) [RH = 34%]
Pressure (altimeter): 30.38 inches Hg (1029.0 mb)
Winds: from the S (190 degrees) at 5 MPH (4 knots; 2.1 m/s)
Visibility: 6 or more miles (10+ km)
Ceiling: at least 12,000 feet AGL
Clouds: few clouds at 6000 feet AGL
Weather: no significant weather observed at this time

METAR text: LJLJ 191130Z 15005KT 9999 FEW060 19/06 Q1029 NOSIG
Conditions at: LJLJ (LJUBLJANA/BRNIK , SI) observed 1130 UTC 19 April 2019
Temperature: 19.0°C (66°F)
Dewpoint: 6.0°C (43°F) [RH = 43%]
Pressure (altimeter): 30.38 inches Hg (1029.0 mb)
Winds: from the SSE (150 degrees) at 6 MPH (5 knots; 2.6 m/s)
Visibility: 6 or more miles (10+ km)
Ceiling: at least 12,000 feet AGL
Clouds: few clouds at 6000 feet AGL
Weather: no significant weather observed at this time

METAR text: LJLJ 191100Z 16007KT 120V200 9999 FEW060 18/06 Q1030 NOSIG
Conditions at: LJLJ (LJUBLJANA/BRNIK , SI) observed 1100 UTC 19 April 2019
Temperature: 18.0°C (64°F)
Dewpoint: 6.0°C (43°F) [RH = 45%]
Pressure (altimeter): 30.41 inches Hg (1030.0 mb)
Winds: from the SSE (160 degrees) at 8 MPH (7 knots; 3.6 m/s)
Visibility: 6 or more miles (10+ km)
Ceiling: at least 12,000 feet AGL
Clouds: few clouds at 6000 feet AGL
Weather: no significant weather observed at this time

METAR text: LJLJ 191030Z 12007KT 080V150 9999 FEW060 18/05 Q1030 NOSIG
Conditions at: LJLJ (LJUBLJANA/BRNIK , SI) observed 1030 UTC 19 April 2019
Temperature: 18.0°C (64°F)
Dewpoint: 5.0°C (41°F) [RH = 42%]
Pressure (altimeter): 30.41 inches Hg (1030.0 mb)
Winds: from the ESE (120 degrees) at 8 MPH (7 knots; 3.6 m/s)
Visibility: 6 or more miles (10+ km)
Ceiling: at least 12,000 feet AGL
Clouds: few clouds at 6000 feet AGL
Weather: no significant weather observed at this time

METAR text: LJLJ 191000Z 09004KT 030V170 9999 FEW060 17/02 Q1030 NOSIG
Conditions at: LJLJ (LJUBLJANA/BRNIK , SI) observed 1000 UTC 19 April 2019
Temperature: 17.0°C (63°F)
Dewpoint: 2.0°C (36°F) [RH = 36%]
Pressure (altimeter): 30.41 inches Hg (1030.0 mb)
Winds: from the E (90 degrees) at 5 MPH (4 knots; 2.1 m/s)
Visibility: 6 or more miles (10+ km)
Ceiling: at least 12,000 feet AGL
Clouds: few clouds at 6000 feet AGL
Weather: no significant weather observed at this time

METAR text: LJLJ 190930Z 09004KT 030V140 9999 FEW060 17/06 Q1030 NOSIG
Conditions at: LJLJ (LJUBLJANA/BRNIK , SI) observed 0930 UTC 19 April 2019
Temperature: 17.0°C (63°F)
Dewpoint: 6.0°C (43°F) [RH = 48%]
Pressure (altimeter): 30.41 inches Hg (1030.0 mb)
Winds: from the E (90 degrees) at 5 MPH (4 knots; 2.1 m/s)
Visibility: 6 or more miles (10+ km)
Ceiling: at least 12,000 feet AGL
Clouds: few clouds at 6000 feet AGL
Weather: no significant weather observed at this time

METAR text: LJLJ 190900Z 08002KT 9999 FEW060 15/04 Q1031 NOSIG
Conditions at: LJLJ (LJUBLJANA/BRNIK , SI) observed 0900 UTC 19 April 2019
Temperature: 15.0°C (59°F)
Dewpoint: 4.0°C (39°F) [RH = 48%]
Pressure (altimeter): 30.44 inches Hg (1031.0 mb)
Winds: from the E (80 degrees) at 2 MPH (2 knots; 1.0 m/s)
Visibility: 6 or more miles (10+ km)
Ceiling: at least 12,000 feet AGL
Clouds: few clouds at 6000 feet AGL
Weather: no significant weather observed at this time

METAR text: LJLJ 190830Z VRB02KT 9999 FEW060 14/05 Q1031 NOSIG
Conditions at: LJLJ (LJUBLJANA/BRNIK , SI) observed 0830 UTC 19 April 2019
Temperature: 14.0°C (57°F)
Dewpoint: 5.0°C (41°F) [RH = 55%]
Pressure (altimeter): 30.44 inches Hg (1031.0 mb)
Winds: variable direction winds at 2 MPH (2 knots; 1.0 m/s)
Visibility: 6 or more miles (10+ km)
Ceiling: at least 12,000 feet AGL
Clouds: few clouds at 6000 feet AGL
Weather: no significant weather observed at this time

METAR text: LJLJ 190800Z VRB02KT 9999 FEW060 13/06 Q1031 NOSIG
Conditions at: LJLJ (LJUBLJANA/BRNIK , SI) observed 0800 UTC 19 April 2019
Temperature: 13.0°C (55°F)
Dewpoint: 6.0°C (43°F) [RH = 62%]
Pressure (altimeter): 30.44 inches Hg (1031.0 mb)
Winds: variable direction winds at 2 MPH (2 knots; 1.0 m/s)
Visibility: 6 or more miles (10+ km)
Ceiling: at least 12,000 feet AGL
Clouds: few clouds at 6000 feet AGL
Weather: no significant weather observed at this time

METAR text: LJLJ 190730Z VRB02KT 9999 FEW060 12/06 Q1031 NOSIG
Conditions at: LJLJ (LJUBLJANA/BRNIK , SI) observed 0730 UTC 19 April 2019
Temperature: 12.0°C (54°F)
Dewpoint: 6.0°C (43°F) [RH = 67%]
Pressure (altimeter): 30.44 inches Hg (1031.0 mb)
Winds: variable direction winds at 2 MPH (2 knots; 1.0 m/s)
Visibility: 6 or more miles (10+ km)
Ceiling: at least 12,000 feet AGL
Clouds: few clouds at 6000 feet AGL
Weather: no significant weather observed at this time

METAR text: LJLJ 190700Z VRB02KT CAVOK 11/05 Q1031 NOSIG
Conditions at: LJLJ (LJUBLJANA/BRNIK , SI) observed 0700 UTC 19 April 2019
Temperature: 11.0°C (52°F)
Dewpoint: 5.0°C (41°F) [RH = 66%]
Pressure (altimeter): 30.44 inches Hg (1031.0 mb)
Winds: variable direction winds at 2 MPH (2 knots; 1.0 m/s)
Visibility: 6 or more miles (10+ km)
Ceiling: ceiling and visibility are OK
Clouds: unknown
Weather: no significant weather observed at this time

METAR text: LJLJ 190630Z VRB01KT CAVOK 09/04 Q1030 NOSIG
Conditions at: LJLJ (LJUBLJANA/BRNIK , SI) observed 0630 UTC 19 April 2019
Temperature: 9.0°C (48°F)
Dewpoint: 4.0°C (39°F) [RH = 71%]
Pressure (altimeter): 30.41 inches Hg (1030.0 mb)
Winds: variable direction winds at 1 MPH (1 knots; 0.5 m/s)
Visibility: 6 or more miles (10+ km)
Ceiling: ceiling and visibility are OK
Clouds: unknown
Weather: no significant weather observed at this time

METAR text: LJLJ 190600Z 12001KT CAVOK 06/04 Q1030 NOSIG
Conditions at: LJLJ (LJUBLJANA/BRNIK , SI) observed 0600 UTC 19 April 2019
Temperature: 6.0°C (43°F)
Dewpoint: 4.0°C (39°F) [RH = 87%]
Pressure (altimeter): 30.41 inches Hg (1030.0 mb)
Winds: from the ESE (120 degrees) at 1 MPH (1 knots; 0.5 m/s)
Visibility: 6 or more miles (10+ km)
Ceiling: ceiling and visibility are OK
Clouds: unknown
Weather: no significant weather observed at this time

METAR text: LJLJ 190530Z VRB01KT CAVOK 04/03 Q1030 NOSIG
Conditions at: LJLJ (LJUBLJANA/BRNIK , SI) observed 0530 UTC 19 April 2019
Temperature: 4.0°C (39°F)
Dewpoint: 3.0°C (37°F) [RH = 93%]
Pressure (altimeter): 30.41 inches Hg (1030.0 mb)
Winds: variable direction winds at 1 MPH (1 knots; 0.5 m/s)
Visibility: 6 or more miles (10+ km)
Ceiling: ceiling and visibility are OK
Clouds: unknown
Weather: no significant weather observed at this time

METAR text: LJLJ 190500Z 00000KT CAVOK 02/01 Q1030 NOSIG
Conditions at: LJLJ (LJUBLJANA/BRNIK , SI) observed 0500 UTC 19 April 2019
Temperature: 2.0°C (36°F)
Dewpoint: 1.0°C (34°F) [RH = 93%]
Pressure (altimeter): 30.41 inches Hg (1030.0 mb)
Winds: calm
Visibility: 6 or more miles (10+ km)
Ceiling: ceiling and visibility are OK
Clouds: unknown
Weather: no significant weather observed at this time

METAR text: LJLJ 190430Z 03001KT CAVOK 01/01 Q1030 NOSIG
Conditions at: LJLJ (LJUBLJANA/BRNIK , SI) observed 0430 UTC 19 April 2019
Temperature: 1.0°C (34°F)
Dewpoint: 1.0°C (34°F) [RH = 100%]
Pressure (altimeter): 30.41 inches Hg (1030.0 mb)
Winds: from the NNE (30 degrees) at 1 MPH (1 knots; 0.5 m/s)
Visibility: 6 or more miles (10+ km)
Ceiling: ceiling and visibility are OK
Clouds: unknown
Weather: no significant weather observed at this time

METAR text: LJLJ 190400Z VRB01KT CAVOK 01/01 Q1030 NOSIG
Conditions at: LJLJ (LJUBLJANA/BRNIK , SI) observed 0400 UTC 19 April 2019
Temperature: 1.0°C (34°F)
Dewpoint: 1.0°C (34°F) [RH = 100%]
Pressure (altimeter): 30.41 inches Hg (1030.0 mb)
Winds: variable direction winds at 1 MPH (1 knots; 0.5 m/s)
Visibility: 6 or more miles (10+ km)
Ceiling: ceiling and visibility are OK
Clouds: unknown
Weather: no significant weather observed at this time

METAR text: LJLJ 190330Z VRB01KT CAVOK 02/01 Q1029 NOSIG
Conditions at: LJLJ (LJUBLJANA/BRNIK , SI) observed 0330 UTC 19 April 2019
Temperature: 2.0°C (36°F)
Dewpoint: 1.0°C (34°F) [RH = 93%]
Pressure (altimeter): 30.38 inches Hg (1029.0 mb)
Winds: variable direction winds at 1 MPH (1 knots; 0.5 m/s)
Visibility: 6 or more miles (10+ km)
Ceiling: ceiling and visibility are OK
Clouds: unknown
Weather: no significant weather observed at this time

METAR text: LJLJ 190300Z VRB01KT CAVOK 02/01 Q1029 NOSIG
Conditions at: LJLJ (LJUBLJANA/BRNIK , SI) observed 0300 UTC 19 April 2019
Temperature: 2.0°C (36°F)
Dewpoint: 1.0°C (34°F) [RH = 93%]
Pressure (altimeter): 30.38 inches Hg (1029.0 mb)
Winds: variable direction winds at 1 MPH (1 knots; 0.5 m/s)
Visibility: 6 or more miles (10+ km)
Ceiling: ceiling and visibility are OK
Clouds: unknown
Weather: no significant weather observed at this time

METAR text: LJLJ 190230Z 29005KT CAVOK 02/02 Q1029 NOSIG
Conditions at: LJLJ (LJUBLJANA/BRNIK , SI) observed 0230 UTC 19 April 2019
Temperature: 2.0°C (36°F)
Dewpoint: 2.0°C (36°F) [RH = 100%]
Pressure (altimeter): 30.38 inches Hg (1029.0 mb)
Winds: from the WNW (290 degrees) at 6 MPH (5 knots; 2.6 m/s)
Visibility: 6 or more miles (10+ km)
Ceiling: ceiling and visibility are OK
Clouds: unknown
Weather: no significant weather observed at this time

METAR text: LJLJ 190200Z 29007KT CAVOK 02/01 Q1029 NOSIG
Conditions at: LJLJ (LJUBLJANA/BRNIK , SI) observed 0200 UTC 19 April 2019
Temperature: 2.0°C (36°F)
Dewpoint: 1.0°C (34°F) [RH = 93%]
Pressure (altimeter): 30.38 inches Hg (1029.0 mb)
Winds: from the WNW (290 degrees) at 8 MPH (7 knots; 3.6 m/s)
Visibility: 6 or more miles (10+ km)
Ceiling: ceiling and visibility are OK
Clouds: unknown
Weather: no significant weather observed at this time

METAR text: LJLJ 190130Z 30004KT CAVOK 03/01 Q1029 NOSIG
Conditions at: LJLJ (LJUBLJANA/BRNIK , SI) observed 0130 UTC 19 April 2019
Temperature: 3.0°C (37°F)
Dewpoint: 1.0°C (34°F) [RH = 87%]
Pressure (altimeter): 30.38 inches Hg (1029.0 mb)
Winds: from the WNW (300 degrees) at 5 MPH (4 knots; 2.1 m/s)
Visibility: 6 or more miles (10+ km)
Ceiling: ceiling and visibility are OK
Clouds: unknown
Weather: no significant weather observed at this time

METAR text: LJLJ 190100Z 30004KT 9999 FEW080 03/01 Q1029 NOSIG
Conditions at: LJLJ (LJUBLJANA/BRNIK , SI) observed 0100 UTC 19 April 2019
Temperature: 3.0°C (37°F)
Dewpoint: 1.0°C (34°F) [RH = 87%]
Pressure (altimeter): 30.38 inches Hg (1029.0 mb)
Winds: from the WNW (300 degrees) at 5 MPH (4 knots; 2.1 m/s)
Visibility: 6 or more miles (10+ km)
Ceiling: at least 12,000 feet AGL
Clouds: few clouds at 8000 feet AGL
Weather: no significant weather observed at this time

METAR text: LJLJ 190030Z VRB04KT 9999 FEW080 04/02 Q1029 NOSIG
Conditions at: LJLJ (LJUBLJANA/BRNIK , SI) observed 0030 UTC 19 April 2019
Temperature: 4.0°C (39°F)
Dewpoint: 2.0°C (36°F) [RH = 87%]
Pressure (altimeter): 30.38 inches Hg (1029.0 mb)
Winds: variable direction winds at 5 MPH (4 knots; 2.1 m/s)
Visibility: 6 or more miles (10+ km)
Ceiling: at least 12,000 feet AGL
Clouds: few clouds at 8000 feet AGL
Weather: no significant weather observed at this time

METAR text: LJLJ 190000Z VRB04KT 9999 FEW080 04/03 Q1029 NOSIG
Conditions at: LJLJ (LJUBLJANA/BRNIK , SI) observed 0000 UTC 19 April 2019
Temperature: 4.0°C (39°F)
Dewpoint: 3.0°C (37°F) [RH = 93%]
Pressure (altimeter): 30.38 inches Hg (1029.0 mb)
Winds: variable direction winds at 5 MPH (4 knots; 2.1 m/s)
Visibility: 6 or more miles (10+ km)
Ceiling: at least 12,000 feet AGL
Clouds: few clouds at 8000 feet AGL
Weather: no significant weather observed at this time

METAR text: LJLJ 182330Z 30006KT 280V350 9999 FEW080 03/02 Q1029 NOSIG
Conditions at: LJLJ (LJUBLJANA/BRNIK , SI) observed 2330 UTC 18 April 2019
Temperature: 3.0°C (37°F)
Dewpoint: 2.0°C (36°F) [RH = 93%]
Pressure (altimeter): 30.38 inches Hg (1029.0 mb)
Winds: from the WNW (300 degrees) at 7 MPH (6 knots; 3.1 m/s)
Visibility: 6 or more miles (10+ km)
Ceiling: at least 12,000 feet AGL
Clouds: few clouds at 8000 feet AGL
Weather: no significant weather observed at this time

METAR text: LJLJ 182300Z 30004KT 9999 FEW080 04/02 Q1029 NOSIG
Conditions at: LJLJ (LJUBLJANA/BRNIK , SI) observed 2300 UTC 18 April 2019
Temperature: 4.0°C (39°F)
Dewpoint: 2.0°C (36°F) [RH = 87%]
Pressure (altimeter): 30.38 inches Hg (1029.0 mb)
Winds: from the WNW (300 degrees) at 5 MPH (4 knots; 2.1 m/s)
Visibility: 6 or more miles (10+ km)
Ceiling: at least 12,000 feet AGL
Clouds: few clouds at 8000 feet AGL
Weather: no significant weather observed at this time

METAR text: LJLJ 182230Z 28004KT 250V330 9999 FEW080 05/03 Q1029 NOSIG
Conditions at: LJLJ (LJUBLJANA/BRNIK , SI) observed 2230 UTC 18 April 2019
Temperature: 5.0°C (41°F)
Dewpoint: 3.0°C (37°F) [RH = 87%]
Pressure (altimeter): 30.38 inches Hg (1029.0 mb)
Winds: from the W (280 degrees) at 5 MPH (4 knots; 2.1 m/s)
Visibility: 6 or more miles (10+ km)
Ceiling: at least 12,000 feet AGL
Clouds: few clouds at 8000 feet AGL
Weather: no significant weather observed at this time

METAR text: LJLJ 182200Z VRB02KT 9999 FEW080 06/04 Q1029 NOSIG
Conditions at: LJLJ (LJUBLJANA/BRNIK , SI) observed 2200 UTC 18 April 2019
Temperature: 6.0°C (43°F)
Dewpoint: 4.0°C (39°F) [RH = 87%]
Pressure (altimeter): 30.38 inches Hg (1029.0 mb)
Winds: variable direction winds at 2 MPH (2 knots; 1.0 m/s)
Visibility: 6 or more miles (10+ km)
Ceiling: at least 12,000 feet AGL
Clouds: few clouds at 8000 feet AGL
Weather: no significant weather observed at this time

METAR text: LJLJ 182130Z 30005KT 9999 FEW080 07/04 Q1029 NOSIG
Conditions at: LJLJ (LJUBLJANA/BRNIK , SI) observed 2130 UTC 18 April 2019
Temperature: 7.0°C (45°F)
Dewpoint: 4.0°C (39°F) [RH = 81%]
Pressure (altimeter): 30.38 inches Hg (1029.0 mb)
Winds: from the WNW (300 degrees) at 6 MPH (5 knots; 2.6 m/s)
Visibility: 6 or more miles (10+ km)
Ceiling: at least 12,000 feet AGL
Clouds: few clouds at 8000 feet AGL
Weather: no significant weather observed at this time

METAR text: LJLJ 182100Z 31004KT 260V010 9999 FEW080 08/04 Q1029 NOSIG
Conditions at: LJLJ (LJUBLJANA/BRNIK , SI) observed 2100 UTC 18 April 2019
Temperature: 8.0°C (46°F)
Dewpoint: 4.0°C (39°F) [RH = 76%]
Pressure (altimeter): 30.38 inches Hg (1029.0 mb)
Winds: from the NW (310 degrees) at 5 MPH (4 knots; 2.1 m/s)
Visibility: 6 or more miles (10+ km)
Ceiling: at least 12,000 feet AGL
Clouds: few clouds at 8000 feet AGL
Weather: no significant weather observed at this time

METAR text: LJLJ 182030Z VRB02KT 9999 FEW080 11/04 Q1028 NOSIG
Conditions at: LJLJ (LJUBLJANA/BRNIK , SI) observed 2030 UTC 18 April 2019
Temperature: 11.0°C (52°F)
Dewpoint: 4.0°C (39°F) [RH = 62%]
Pressure (altimeter): 30.35 inches Hg (1028.0 mb)
Winds: variable direction winds at 2 MPH (2 knots; 1.0 m/s)
Visibility: 6 or more miles (10+ km)
Ceiling: at least 12,000 feet AGL
Clouds: few clouds at 8000 feet AGL
Weather: no significant weather observed at this time

METAR text: LJLJ 182000Z 11009KT 9999 FEW080 12/04 Q1028 NOSIG
Conditions at: LJLJ (LJUBLJANA/BRNIK , SI) observed 2000 UTC 18 April 2019
Temperature: 12.0°C (54°F)
Dewpoint: 4.0°C (39°F) [RH = 58%]
Pressure (altimeter): 30.35 inches Hg (1028.0 mb)
Winds: from the ESE (110 degrees) at 10 MPH (9 knots; 4.6 m/s)
Visibility: 6 or more miles (10+ km)
Ceiling: at least 12,000 feet AGL
Clouds: few clouds at 8000 feet AGL
Weather: no significant weather observed at this time

METAR text: LJLJ 181930Z 11008KT 9999 FEW080 12/04 Q1028 NOSIG
Conditions at: LJLJ (LJUBLJANA/BRNIK , SI) observed 1930 UTC 18 April 2019
Temperature: 12.0°C (54°F)
Dewpoint: 4.0°C (39°F) [RH = 58%]
Pressure (altimeter): 30.35 inches Hg (1028.0 mb)
Winds: from the ESE (110 degrees) at 9 MPH (8 knots; 4.1 m/s)
Visibility: 6 or more miles (10+ km)
Ceiling: at least 12,000 feet AGL
Clouds: few clouds at 8000 feet AGL
Weather: no significant weather observed at this time

METAR text: LJLJ 181900Z 12007KT 9999 FEW060 SCT085 11/04 Q1028 NOSIG
Conditions at: LJLJ (LJUBLJANA/BRNIK , SI) observed 1900 UTC 18 April 2019
Temperature: 11.0°C (52°F)
Dewpoint: 4.0°C (39°F) [RH = 62%]
Pressure (altimeter): 30.35 inches Hg (1028.0 mb)
Winds: from the ESE (120 degrees) at 8 MPH (7 knots; 3.6 m/s)
Visibility: 6 or more miles (10+ km)
Ceiling: at least 12,000 feet AGL
Clouds: few clouds at 6000 feet AGL
scattered clouds at 8500 feet AGL
Weather: no significant weather observed at this time

METAR text: LJLJ 181830Z 11008KT 9999 FEW060 SCT085 11/04 Q1027 NOSIG
Conditions at: LJLJ (LJUBLJANA/BRNIK , SI) observed 1830 UTC 18 April 2019
Temperature: 11.0°C (52°F)
Dewpoint: 4.0°C (39°F) [RH = 62%]
Pressure (altimeter): 30.32 inches Hg (1027.0 mb)
Winds: from the ESE (110 degrees) at 9 MPH (8 knots; 4.1 m/s)
Visibility: 6 or more miles (10+ km)
Ceiling: at least 12,000 feet AGL
Clouds: few clouds at 6000 feet AGL
scattered clouds at 8500 feet AGL
Weather: no significant weather observed at this time

METAR text: LJLJ 181800Z 12008KT 9999 FEW060 SCT085 12/04 Q1027 NOSIG
Conditions at: LJLJ (LJUBLJANA/BRNIK , SI) observed 1800 UTC 18 April 2019
Temperature: 12.0°C (54°F)
Dewpoint: 4.0°C (39°F) [RH = 58%]
Pressure (altimeter): 30.32 inches Hg (1027.0 mb)
Winds: from the ESE (120 degrees) at 9 MPH (8 knots; 4.1 m/s)
Visibility: 6 or more miles (10+ km)
Ceiling: at least 12,000 feet AGL
Clouds: few clouds at 6000 feet AGL
scattered clouds at 8500 feet AGL
Weather: no significant weather observed at this time

METAR text: LJLJ 181730Z 12011KT 9999 FEW060 SCT085 13/04 Q1026 NOSIG
Conditions at: LJLJ (LJUBLJANA/BRNIK , SI) observed 1730 UTC 18 April 2019
Temperature: 13.0°C (55°F)
Dewpoint: 4.0°C (39°F) [RH = 54%]
Pressure (altimeter): 30.30 inches Hg (1026.0 mb)
Winds: from the ESE (120 degrees) at 13 MPH (11 knots; 5.7 m/s)
Visibility: 6 or more miles (10+ km)
Ceiling: at least 12,000 feet AGL
Clouds: few clouds at 6000 feet AGL
scattered clouds at 8500 feet AGL
Weather: no significant weather observed at this time

METAR text: LJLJ 181700Z 11011KT 9999 FEW060 SCT085 15/05 Q1026 NOSIG
Conditions at: LJLJ (LJUBLJANA/BRNIK , SI) observed 1700 UTC 18 April 2019
Temperature: 15.0°C (59°F)
Dewpoint: 5.0°C (41°F) [RH = 51%]
Pressure (altimeter): 30.30 inches Hg (1026.0 mb)
Winds: from the ESE (110 degrees) at 13 MPH (11 knots; 5.7 m/s)
Visibility: 6 or more miles (10+ km)
Ceiling: at least 12,000 feet AGL
Clouds: few clouds at 6000 feet AGL
scattered clouds at 8500 feet AGL
Weather: no significant weather observed at this time

METAR text: LJLJ 181630Z 10009KT 9999 FEW060 SCT085 16/04 Q1026 NOSIG
Conditions at: LJLJ (LJUBLJANA/BRNIK , SI) observed 1630 UTC 18 April 2019
Temperature: 16.0°C (61°F)
Dewpoint: 4.0°C (39°F) [RH = 45%]
Pressure (altimeter): 30.30 inches Hg (1026.0 mb)
Winds: from the E (100 degrees) at 10 MPH (9 knots; 4.6 m/s)
Visibility: 6 or more miles (10+ km)
Ceiling: at least 12,000 feet AGL
Clouds: few clouds at 6000 feet AGL
scattered clouds at 8500 feet AGL
Weather: no significant weather observed at this time

METAR text: LJLJ 181600Z 10011KT 9999 FEW060 SCT085 16/04 Q1026 NOSIG
Conditions at: LJLJ (LJUBLJANA/BRNIK , SI) observed 1600 UTC 18 April 2019
Temperature: 16.0°C (61°F)
Dewpoint: 4.0°C (39°F) [RH = 45%]
Pressure (altimeter): 30.30 inches Hg (1026.0 mb)
Winds: from the E (100 degrees) at 13 MPH (11 knots; 5.7 m/s)
Visibility: 6 or more miles (10+ km)
Ceiling: at least 12,000 feet AGL
Clouds: few clouds at 6000 feet AGL
scattered clouds at 8500 feet AGL
Weather: no significant weather observed at this time

METAR text: LJLJ 181530Z 10012KT 9999 FEW060 SCT085 17/05 Q1025 NOSIG
Conditions at: LJLJ (LJUBLJANA/BRNIK , SI) observed 1530 UTC 18 April 2019
Temperature: 17.0°C (63°F)
Dewpoint: 5.0°C (41°F) [RH = 45%]
Pressure (altimeter): 30.27 inches Hg (1025.0 mb)
Winds: from the E (100 degrees) at 14 MPH (12 knots; 6.2 m/s)
Visibility: 6 or more miles (10+ km)
Ceiling: at least 12,000 feet AGL
Clouds: few clouds at 6000 feet AGL
scattered clouds at 8500 feet AGL
Weather: no significant weather observed at this time

METAR text: LJLJ 181500Z 10012KT 9999 FEW055 SCT080 17/05 Q1025 NOSIG
Conditions at: LJLJ (LJUBLJANA/BRNIK , SI) observed 1500 UTC 18 April 2019
Temperature: 17.0°C (63°F)
Dewpoint: 5.0°C (41°F) [RH = 45%]
Pressure (altimeter): 30.27 inches Hg (1025.0 mb)
Winds: from the E (100 degrees) at 14 MPH (12 knots; 6.2 m/s)
Visibility: 6 or more miles (10+ km)
Ceiling: at least 12,000 feet AGL
Clouds: few clouds at 5500 feet AGL
scattered clouds at 8000 feet AGL
Weather: no significant weather observed at this time

METAR text: LJLJ 181430Z 09011KT 9999 FEW055 SCT080 17/04 Q1025 NOSIG
Conditions at: LJLJ (LJUBLJANA/BRNIK , SI) observed 1430 UTC 18 April 2019
Temperature: 17.0°C (63°F)
Dewpoint: 4.0°C (39°F) [RH = 42%]
Pressure (altimeter): 30.27 inches Hg (1025.0 mb)
Winds: from the E (90 degrees) at 13 MPH (11 knots; 5.7 m/s)
Visibility: 6 or more miles (10+ km)
Ceiling: at least 12,000 feet AGL
Clouds: few clouds at 5500 feet AGL
scattered clouds at 8000 feet AGL
Weather: no significant weather observed at this time

METAR text: LJLJ 181400Z 11009KT 080V140 9999 FEW055 SCT080 17/06 Q1025 NOSIG
Conditions at: LJLJ (LJUBLJANA/BRNIK , SI) observed 1400 UTC 18 April 2019
Temperature: 17.0°C (63°F)
Dewpoint: 6.0°C (43°F) [RH = 48%]
Pressure (altimeter): 30.27 inches Hg (1025.0 mb)
Winds: from the ESE (110 degrees) at 10 MPH (9 knots; 4.6 m/s)
Visibility: 6 or more miles (10+ km)
Ceiling: at least 12,000 feet AGL
Clouds: few clouds at 5500 feet AGL
scattered clouds at 8000 feet AGL
Weather: no significant weather observed at this time

METAR text: LJLJ 181330Z 11009KT 080V140 9999 FEW055 BKN085 17/07 Q1025 NOSIG
Conditions at: LJLJ (LJUBLJANA/BRNIK , SI) observed 1330 UTC 18 April 2019
Temperature: 17.0°C (63°F)
Dewpoint: 7.0°C (45°F) [RH = 52%]
Pressure (altimeter): 30.27 inches Hg (1025.0 mb)
Winds: from the ESE (110 degrees) at 10 MPH (9 knots; 4.6 m/s)
Visibility: 6 or more miles (10+ km)
Ceiling: 8500 feet AGL
Clouds: few clouds at 5500 feet AGL
broken clouds at 8500 feet AGL
Weather: no significant weather observed at this time

METAR text: LJLJ 181300Z 12011KT 9999 FEW055 BKN080 18/07 Q1026 NOSIG
Conditions at: LJLJ (LJUBLJANA/BRNIK , SI) observed 1300 UTC 18 April 2019
Temperature: 18.0°C (64°F)
Dewpoint: 7.0°C (45°F) [RH = 49%]
Pressure (altimeter): 30.30 inches Hg (1026.0 mb)
Winds: from the ESE (120 degrees) at 13 MPH (11 knots; 5.7 m/s)
Visibility: 6 or more miles (10+ km)
Ceiling: 8000 feet AGL
Clouds: few clouds at 5500 feet AGL
broken clouds at 8000 feet AGL
Weather: no significant weather observed at this time

METAR text: LJLJ 181230Z 13009KT 100V160 9999 FEW055 BKN080 16/05 Q1026 NOSIG
Conditions at: LJLJ (LJUBLJANA/BRNIK , SI) observed 1230 UTC 18 April 2019
Temperature: 16.0°C (61°F)
Dewpoint: 5.0°C (41°F) [RH = 48%]
Pressure (altimeter): 30.30 inches Hg (1026.0 mb)
Winds: from the SE (130 degrees) at 10 MPH (9 knots; 4.6 m/s)
Visibility: 6 or more miles (10+ km)
Ceiling: 8000 feet AGL
Clouds: few clouds at 5500 feet AGL
broken clouds at 8000 feet AGL
Weather: no significant weather observed at this time

METAR text: LJLJ 181200Z 15009KT 120V190 9999 SCT055 BKN080 16/06 Q1026 NOSIG
Conditions at: LJLJ (LJUBLJANA/BRNIK , SI) observed 1200 UTC 18 April 2019
Temperature: 16.0°C (61°F)
Dewpoint: 6.0°C (43°F) [RH = 51%]
Pressure (altimeter): 30.30 inches Hg (1026.0 mb)
Winds: from the SSE (150 degrees) at 10 MPH (9 knots; 4.6 m/s)
Visibility: 6 or more miles (10+ km)
Ceiling: 8000 feet AGL
Clouds: scattered clouds at 5500 feet AGL
broken clouds at 8000 feet AGL
Weather: no significant weather observed at this time

METAR text: LJLJ 181130Z 13009KT 100V160 9999 FEW065 BKN080 18/08 Q1026 NOSIG
Conditions at: LJLJ (LJUBLJANA/BRNIK , SI) observed 1130 UTC 18 April 2019
Temperature: 18.0°C (64°F)
Dewpoint: 8.0°C (46°F) [RH = 52%]
Pressure (altimeter): 30.30 inches Hg (1026.0 mb)
Winds: from the SE (130 degrees) at 10 MPH (9 knots; 4.6 m/s)
Visibility: 6 or more miles (10+ km)
Ceiling: 8000 feet AGL
Clouds: few clouds at 6500 feet AGL
broken clouds at 8000 feet AGL
Weather: no significant weather observed at this time

METAR text: LJLJ 181100Z 11007KT 070V160 9999 FEW060 SCT080 16/06 Q1026 NOSIG
Conditions at: LJLJ (LJUBLJANA/BRNIK , SI) observed 1100 UTC 18 April 2019
Temperature: 16.0°C (61°F)
Dewpoint: 6.0°C (43°F) [RH = 51%]
Pressure (altimeter): 30.30 inches Hg (1026.0 mb)
Winds: from the ESE (110 degrees) at 8 MPH (7 knots; 3.6 m/s)
Visibility: 6 or more miles (10+ km)
Ceiling: at least 12,000 feet AGL
Clouds: few clouds at 6000 feet AGL
scattered clouds at 8000 feet AGL
Weather: no significant weather observed at this time

METAR text: LJLJ 181030Z VRB04KT 9999 FEW060 SCT080 16/06 Q1026 NOSIG
Conditions at: LJLJ (LJUBLJANA/BRNIK , SI) observed 1030 UTC 18 April 2019
Temperature: 16.0°C (61°F)
Dewpoint: 6.0°C (43°F) [RH = 51%]
Pressure (altimeter): 30.30 inches Hg (1026.0 mb)
Winds: variable direction winds at 5 MPH (4 knots; 2.1 m/s)
Visibility: 6 or more miles (10+ km)
Ceiling: at least 12,000 feet AGL
Clouds: few clouds at 6000 feet AGL
scattered clouds at 8000 feet AGL
Weather: no significant weather observed at this time

METAR text: LJLJ 181000Z 13006KT 9999 FEW060 SCT080 16/08 Q1026 NOSIG
Conditions at: LJLJ (LJUBLJANA/BRNIK , SI) observed 1000 UTC 18 April 2019
Temperature: 16.0°C (61°F)
Dewpoint: 8.0°C (46°F) [RH = 59%]
Pressure (altimeter): 30.30 inches Hg (1026.0 mb)
Winds: from the SE (130 degrees) at 7 MPH (6 knots; 3.1 m/s)
Visibility: 6 or more miles (10+ km)
Ceiling: at least 12,000 feet AGL
Clouds: few clouds at 6000 feet AGL
scattered clouds at 8000 feet AGL
Weather: no significant weather observed at this time

METAR text: LJLJ 180930Z 12006KT 070V160 9999 FEW070 16/06 Q1026 NOSIG
Conditions at: LJLJ (LJUBLJANA/BRNIK , SI) observed 0930 UTC 18 April 2019
Temperature: 16.0°C (61°F)
Dewpoint: 6.0°C (43°F) [RH = 51%]
Pressure (altimeter): 30.30 inches Hg (1026.0 mb)
Winds: from the ESE (120 degrees) at 7 MPH (6 knots; 3.1 m/s)
Visibility: 6 or more miles (10+ km)
Ceiling: at least 12,000 feet AGL
Clouds: few clouds at 7000 feet AGL
Weather: no significant weather observed at this time

METAR text: LJLJ 180900Z 11005KT 040V140 9999 FEW070 15/05 Q1026 NOSIG
Conditions at: LJLJ (LJUBLJANA/BRNIK , SI) observed 0900 UTC 18 April 2019
Temperature: 15.0°C (59°F)
Dewpoint: 5.0°C (41°F) [RH = 51%]
Pressure (altimeter): 30.30 inches Hg (1026.0 mb)
Winds: from the ESE (110 degrees) at 6 MPH (5 knots; 2.6 m/s)
Visibility: 6 or more miles (10+ km)
Ceiling: at least 12,000 feet AGL
Clouds: few clouds at 7000 feet AGL
Weather: no significant weather observed at this time

METAR text: LJLJ 180830Z 07003KT 010V170 9999 FEW070 14/06 Q1026 NOSIG
Conditions at: LJLJ (LJUBLJANA/BRNIK , SI) observed 0830 UTC 18 April 2019
Temperature: 14.0°C (57°F)
Dewpoint: 6.0°C (43°F) [RH = 58%]
Pressure (altimeter): 30.30 inches Hg (1026.0 mb)
Winds: from the ENE (70 degrees) at 3 MPH (3 knots; 1.5 m/s)
Visibility: 6 or more miles (10+ km)
Ceiling: at least 12,000 feet AGL
Clouds: few clouds at 7000 feet AGL
Weather: no significant weather observed at this time

METAR text: LJLJ 180800Z VRB01KT 9999 FEW070 13/05 Q1026 NOSIG
Conditions at: LJLJ (LJUBLJANA/BRNIK , SI) observed 0800 UTC 18 April 2019
Temperature: 13.0°C (55°F)
Dewpoint: 5.0°C (41°F) [RH = 58%]
Pressure (altimeter): 30.30 inches Hg (1026.0 mb)
Winds: variable direction winds at 1 MPH (1 knots; 0.5 m/s)
Visibility: 6 or more miles (10+ km)
Ceiling: at least 12,000 feet AGL
Clouds: few clouds at 7000 feet AGL
Weather: no significant weather observed at this time

METAR text: LJLJ 180730Z 26001KT 9999 FEW070 11/05 Q1026 NOSIG
Conditions at: LJLJ (LJUBLJANA/BRNIK , SI) observed 0730 UTC 18 April 2019
Temperature: 11.0°C (52°F)
Dewpoint: 5.0°C (41°F) [RH = 66%]
Pressure (altimeter): 30.30 inches Hg (1026.0 mb)
Winds: from the W (260 degrees) at 1 MPH (1 knots; 0.5 m/s)
Visibility: 6 or more miles (10+ km)
Ceiling: at least 12,000 feet AGL
Clouds: few clouds at 7000 feet AGL
Weather: no significant weather observed at this time

METAR text: LJLJ 180700Z VRB01KT 9999 FEW070 09/05 Q1026 NOSIG
Conditions at: LJLJ (LJUBLJANA/BRNIK , SI) observed 0700 UTC 18 April 2019
Temperature: 9.0°C (48°F)
Dewpoint: 5.0°C (41°F) [RH = 76%]
Pressure (altimeter): 30.30 inches Hg (1026.0 mb)
Winds: variable direction winds at 1 MPH (1 knots; 0.5 m/s)
Visibility: 6 or more miles (10+ km)
Ceiling: at least 12,000 feet AGL
Clouds: few clouds at 7000 feet AGL
Weather: no significant weather observed at this time

Forecast for: LJLJ (LJUBLJANA/BRNIK , SI)
Text: TAF LJLJ 191700Z 1918/2018 VRB02KT 9999 FEW065
Forecast period: 1800 UTC 19 April 2019 to 1800 UTC 20 April 2019
Forecast type: FROM: standard forecast or significant change
Winds: variable direction winds at 2 MPH (2 knots; 1.0 m/s)
Visibility: 6 or more miles 10+ km)
Ceiling: at least 12,000 feet AGL
Clouds: few clouds at 6500 feet AGL
Weather: no significant weather forecast for this period
Text: BECMG 1918/1920 30004KT CAVOK
Forecast period: 1800 UTC 19 April 2019 to 0900 UTC 20 April 2019
Forecast type: BECOMING: Conditions expected to become as follows by 2000 UTC 19 April 2019
Winds: from the WNW (300 degrees) at 5 MPH (4 knots; 2.1 m/s)
Visibility: 6 or more miles 10+ km)
Ceiling: unknown
Clouds: missing
Weather: NSW  (no significant weather)
Text: BECMG 2009/2012 13005KT FEW060
Forecast period: 0900 to 1800 UTC 20 April 2019
Forecast type: BECOMING: Conditions expected to become as follows by 1200 UTC 20 April 2019
Winds: from the SE (130 degrees) at 6 MPH (5 knots; 2.6 m/s)
Visibility: 6 or more miles 10+ km)
Ceiling: at least 12,000 feet AGL
Clouds: few clouds at 6000 feet AGL
Weather: NSW  (no significant weather)